Central Nebraska Regional Airport
KGRI : now visible

Airfield :











YOU CAN JOIN US ON...

 
LOGIN :

Register | Disclaimer

   EN    FR    IT 

 









Legend :    VFR   Marginal VFR   IFR   Intensive IFR   Very Intensive IFR
Visi :
Ceiling :
>= 8 km
>= 3000ft
5 to 8 km
1000 to 3000 ft
1500m to 5 km
500 to 1000 ft
800 to 1500m
200 to 500 ft
< 800m
< 200 ft
Symbols :   Thunderstorms  Fog  Heavy snow  Heavy precipitations  Wind > 20 kt






- Airport Elevation : 1847 ft
- IATA code : GRI


KGRI - Central Nebraska Regional

CURRENT METAR :
  • 261553Z 34011KT 10SM CLR M06/M12 A3046 RMK AO2 SNE11 SLP347 P0000 T10561117

EXPIRED METARs :
  • 261521Z 36010KT 10SM SCT030 SCT036 M06/M12 A3045 RMK AO2 SNE11 P0000 T10611117
  • 261502Z 35010KT 4SM -SN OVC008 M07/M12 A3046 RMK AO2 P0000 T10671122
  • 261453Z 34009KT 5SM -SN OVC032 M07/M12 A3047 RMK AO2 SNB50 SLP353 P0000 60000 T10671122 52013
  • 261353Z 33009KT 10SM OVC060 M07/M12 A3047 RMK AO2 SLP349 T10721122

TAF KGRI
Valid from the 26 at 15:00 until the 27 at 12:00 UTC


261523Z 2615/2712 35012KT 6SM BR VCSH SCT025 BKN060
TEMPO 2615/2616 4SM -SN BKN008
FM261700 35010KT P6SM BKN090
FM262300 VRB06KT P6SM SCT100
FM270800 VRB06KT P6SM FEW120
KZMP FIR / North America



MET'MAP, your aeronautical weather chart ! - Copyright ORBIFLY December 2007 - Disclaimer

ORBIFLY MET'MAP TEAM :

Programming & Development : Alexandra Zaïnal
Concept & original design : Baudouin d'Aumeries
Assistance for programming : Marc-Olivier Méhu
Technical & hardware support : Manuel Goepfert

Contact : metmap@orbifly.com




SOURCES & CREDITS :

   NOAA       Earth
Advisory